sensor_id;sensor_type;location;lat;lon;timestamp;temperature;humidity
2889;DHT22;1453;42.708;23.282;2023-03-14T00:02:19;3.60;95.00
2889;DHT22;1453;42.708;23.282;2023-03-14T00:04:44;3.60;95.30
2889;DHT22;1453;42.708;23.282;2023-03-14T00:07:11;3.50;95.50
2889;DHT22;1453;42.708;23.282;2023-03-14T00:09:38;3.60;94.80
2889;DHT22;1453;42.708;23.282;2023-03-14T00:12:04;3.50;95.20
2889;DHT22;1453;42.708;23.282;2023-03-14T00:14:31;3.40;93.50
2889;DHT22;1453;42.708;23.282;2023-03-14T00:16:57;3.30;92.80
2889;DHT22;1453;42.708;23.282;2023-03-14T00:19:23;3.20;93.40
2889;DHT22;1453;42.708;23.282;2023-03-14T00:21:49;3.30;91.10
2889;DHT22;1453;42.708;23.282;2023-03-14T00:24:14;3.50;90.70
2889;DHT22;1453;42.708;23.282;2023-03-14T00:26:40;3.60;89.50
2889;DHT22;1453;42.708;23.282;2023-03-14T00:29:06;3.50;90.00
2889;DHT22;1453;42.708;23.282;2023-03-14T00:31:32;3.50;88.20
2889;DHT22;1453;42.708;23.282;2023-03-14T00:33:58;3.60;87.00
2889;DHT22;1453;42.708;23.282;2023-03-14T00:36:23;3.70;87.10
2889;DHT22;1453;42.708;23.282;2023-03-14T00:38:50;3.40;89.50
2889;DHT22;1453;42.708;23.282;2023-03-14T00:41:19;3.40;90.00
2889;DHT22;1453;42.708;23.282;2023-03-14T00:43:48;3.40;89.70
2889;DHT22;1453;42.708;23.282;2023-03-14T00:46:14;3.60;88.60
2889;DHT22;1453;42.708;23.282;2023-03-14T00:48:40;3.70;88.30
2889;DHT22;1453;42.708;23.282;2023-03-14T00:51:07;3.80;88.00
2889;DHT22;1453;42.708;23.282;2023-03-14T00:53:38;3.80;86.00
2889;DHT22;1453;42.708;23.282;2023-03-14T00:56:07;3.70;85.20
2889;DHT22;1453;42.708;23.282;2023-03-14T00:58:34;3.70;86.60
2889;DHT22;1453;42.708;23.282;2023-03-14T01:01:09;3.90;86.90
2889;DHT22;1453;42.708;23.282;2023-03-14T01:03:36;3.90;86.90
2889;DHT22;1453;42.708;23.282;2023-03-14T01:06:12;3.80;86.00
2889;DHT22;1453;42.708;23.282;2023-03-14T01:08:40;3.80;85.90
2889;DHT22;1453;42.708;23.282;2023-03-14T01:11:14;3.80;87.00
2889;DHT22;1453;42.708;23.282;2023-03-14T01:13:42;3.80;86.40
2889;DHT22;1453;42.708;23.282;2023-03-14T01:16:09;3.80;87.10
2889;DHT22;1453;42.708;23.282;2023-03-14T01:18:37;3.70;88.30
2889;DHT22;1453;42.708;23.282;2023-03-14T01:21:14;3.60;90.50
2889;DHT22;1453;42.708;23.282;2023-03-14T01:23:49;3.40;91.20
2889;DHT22;1453;42.708;23.282;2023-03-14T01:26:18;3.30;92.40
2889;DHT22;1453;42.708;23.282;2023-03-14T01:28:46;3.10;95.00
2889;DHT22;1453;42.708;23.282;2023-03-14T01:31:13;3.00;95.90
2889;DHT22;1453;42.708;23.282;2023-03-14T01:33:40;2.90;98.40
2889;DHT22;1453;42.708;23.282;2023-03-14T01:36:07;2.80;99.90
2889;DHT22;1453;42.708;23.282;2023-03-14T01:38:34;2.90;99.90
2889;DHT22;1453;42.708;23.282;2023-03-14T01:41:02;2.80;99.90
2889;DHT22;1453;42.708;23.282;2023-03-14T01:43:29;2.80;99.90
2889;DHT22;1453;42.708;23.282;2023-03-14T01:48:53;2.60;99.90
2889;DHT22;1453;42.708;23.282;2023-03-14T01:57:06;2.20;99.90
2889;DHT22;1453;42.708;23.282;2023-03-14T01:59:34;2.20;99.90
2889;DHT22;1453;42.708;23.282;2023-03-14T02:02:02;2.20;99.90
2889;DHT22;1453;42.708;23.282;2023-03-14T02:04:34;2.30;99.90
2889;DHT22;1453;42.708;23.282;2023-03-14T02:07:15;2.30;99.90
2889;DHT22;1453;42.708;23.282;2023-03-14T02:09:43;2.00;99.90
2889;DHT22;1453;42.708;23.282;2023-03-14T02:12:11;2.00;99.90
2889;DHT22;1453;42.708;23.282;2023-03-14T02:14:39;2.00;99.90
2889;DHT22;1453;42.708;23.282;2023-03-14T02:17:08;2.10;99.90
2889;DHT22;1453;42.708;23.282;2023-03-14T02:22:33;2.20;99.90
2889;DHT22;1453;42.708;23.282;2023-03-14T02:28:05;2.40;99.90
2889;DHT22;1453;42.708;23.282;2023-03-14T02:30:32;2.30;99.90
2889;DHT22;1453;42.708;23.282;2023-03-14T02:35:40;2.20;99.90
2889;DHT22;1453;42.708;23.282;2023-03-14T02:41:19;2.00;99.90
2889;DHT22;1453;42.708;23.282;2023-03-14T02:43:45;1.90;99.90
2889;DHT22;1453;42.708;23.282;2023-03-14T02:46:13;1.90;99.90
2889;DHT22;1453;42.708;23.282;2023-03-14T02:48:45;1.80;99.90
2889;DHT22;1453;42.708;23.282;2023-03-14T02:51:14;1.80;99.90
2889;DHT22;1453;42.708;23.282;2023-03-14T02:53:40;1.70;99.90
2889;DHT22;1453;42.708;23.282;2023-03-14T02:56:08;1.70;99.90
2889;DHT22;1453;42.708;23.282;2023-03-14T02:58:35;1.60;99.90
2889;DHT22;1453;42.708;23.282;2023-03-14T03:01:01;1.70;99.90
2889;DHT22;1453;42.708;23.282;2023-03-14T03:03:27;1.60;99.90
2889;DHT22;1453;42.708;23.282;2023-03-14T03:05:54;1.60;99.90
2889;DHT22;1453;42.708;23.282;2023-03-14T03:08:22;1.60;99.90
2889;DHT22;1453;42.708;23.282;2023-03-14T03:10:50;1.60;99.90
2889;DHT22;1453;42.708;23.282;2023-03-14T03:13:16;1.40;99.90
2889;DHT22;1453;42.708;23.282;2023-03-14T03:15:42;1.40;99.90
2889;DHT22;1453;42.708;23.282;2023-03-14T03:18:09;1.30;99.90
2889;DHT22;1453;42.708;23.282;2023-03-14T03:20:35;1.40;99.90
2889;DHT22;1453;42.708;23.282;2023-03-14T03:23:01;1.40;99.90
2889;DHT22;1453;42.708;23.282;2023-03-14T03:25:27;1.40;99.90
2889;DHT22;1453;42.708;23.282;2023-03-14T03:27:53;1.50;99.90
2889;DHT22;1453;42.708;23.282;2023-03-14T03:30:19;1.50;99.90
2889;DHT22;1453;42.708;23.282;2023-03-14T03:32:45;1.60;99.90
2889;DHT22;1453;42.708;23.282;2023-03-14T03:35:11;1.60;99.90
2889;DHT22;1453;42.708;23.282;2023-03-14T03:37:38;1.50;99.90
2889;DHT22;1453;42.708;23.282;2023-03-14T03:40:04;1.50;99.90
2889;DHT22;1453;42.708;23.282;2023-03-14T03:42:32;1.50;99.90
2889;DHT22;1453;42.708;23.282;2023-03-14T03:44:59;1.40;99.90
2889;DHT22;1453;42.708;23.282;2023-03-14T03:47:25;1.50;99.90
2889;DHT22;1453;42.708;23.282;2023-03-14T03:49:52;1.50;99.90
2889;DHT22;1453;42.708;23.282;2023-03-14T03:52:17;1.30;99.90
2889;DHT22;1453;42.708;23.282;2023-03-14T03:54:44;1.30;99.90
2889;DHT22;1453;42.708;23.282;2023-03-14T03:57:09;1.10;99.90
2889;DHT22;1453;42.708;23.282;2023-03-14T03:59:35;0.70;99.90
2889;DHT22;1453;42.708;23.282;2023-03-14T04:02:01;0.80;99.90
2889;DHT22;1453;42.708;23.282;2023-03-14T04:04:27;0.80;99.90
2889;DHT22;1453;42.708;23.282;2023-03-14T04:06:53;0.80;99.90
2889;DHT22;1453;42.708;23.282;2023-03-14T04:09:18;0.60;99.90
2889;DHT22;1453;42.708;23.282;2023-03-14T04:11:44;0.80;99.90
2889;DHT22;1453;42.708;23.282;2023-03-14T04:14:10;0.70;99.90
2889;DHT22;1453;42.708;23.282;2023-03-14T04:16:39;0.60;99.90
2889;DHT22;1453;42.708;23.282;2023-03-14T04:19:05;0.90;99.90
2889;DHT22;1453;42.708;23.282;2023-03-14T04:21:31;0.90;99.90
2889;DHT22;1453;42.708;23.282;2023-03-14T04:23:57;1.00;99.90
2889;DHT22;1453;42.708;23.282;2023-03-14T04:26:22;0.90;99.90
2889;DHT22;1453;42.708;23.282;2023-03-14T04:28:48;0.60;99.90
2889;DHT22;1453;42.708;23.282;2023-03-14T04:31:20;0.50;99.90
2889;DHT22;1453;42.708;23.282;2023-03-14T04:33:46;0.50;99.90
2889;DHT22;1453;42.708;23.282;2023-03-14T04:36:13;0.60;99.90
2889;DHT22;1453;42.708;23.282;2023-03-14T04:38:40;0.40;99.90
2889;DHT22;1453;42.708;23.282;2023-03-14T04:41:06;0.50;99.90
2889;DHT22;1453;42.708;23.282;2023-03-14T04:43:32;0.70;99.90
2889;DHT22;1453;42.708;23.282;2023-03-14T04:45:59;0.70;99.90
2889;DHT22;1453;42.708;23.282;2023-03-14T04:48:25;0.70;99.90
2889;DHT22;1453;42.708;23.282;2023-03-14T04:50:52;1.00;99.90
2889;DHT22;1453;42.708;23.282;2023-03-14T04:53:18;1.00;99.90
2889;DHT22;1453;42.708;23.282;2023-03-14T04:55:49;0.80;99.90
2889;DHT22;1453;42.708;23.282;2023-03-14T04:58:16;0.80;99.90
2889;DHT22;1453;42.708;23.282;2023-03-14T05:00:42;0.80;99.90
2889;DHT22;1453;42.708;23.282;2023-03-14T05:03:07;0.80;99.90
2889;DHT22;1453;42.708;23.282;2023-03-14T05:05:33;0.80;99.90
2889;DHT22;1453;42.708;23.282;2023-03-14T05:07:59;0.70;99.90
2889;DHT22;1453;42.708;23.282;2023-03-14T05:10:25;0.90;99.90
2889;DHT22;1453;42.708;23.282;2023-03-14T05:12:54;1.20;99.90
2889;DHT22;1453;42.708;23.282;2023-03-14T05:15:20;1.20;99.90
2889;DHT22;1453;42.708;23.282;2023-03-14T05:17:46;1.40;99.90
2889;DHT22;1453;42.708;23.282;2023-03-14T05:20:12;1.60;99.90
2889;DHT22;1453;42.708;23.282;2023-03-14T05:22:41;1.50;99.90
2889;DHT22;1453;42.708;23.282;2023-03-14T05:25:07;1.60;99.90
2889;DHT22;1453;42.708;23.282;2023-03-14T05:27:34;1.70;99.90
2889;DHT22;1453;42.708;23.282;2023-03-14T05:30:01;1.60;99.90
2889;DHT22;1453;42.708;23.282;2023-03-14T05:32:28;1.40;99.90
2889;DHT22;1453;42.708;23.282;2023-03-14T05:34:54;1.50;99.90
2889;DHT22;1453;42.708;23.282;2023-03-14T05:37:23;1.70;99.90
2889;DHT22;1453;42.708;23.282;2023-03-14T05:39:50;2.10;99.90
2889;DHT22;1453;42.708;23.282;2023-03-14T05:42:16;2.30;99.90
2889;DHT22;1453;42.708;23.282;2023-03-14T05:44:41;2.30;99.90
2889;DHT22;1453;42.708;23.282;2023-03-14T05:47:07;2.40;99.90
2889;DHT22;1453;42.708;23.282;2023-03-14T05:49:33;2.40;99.90
2889;DHT22;1453;42.708;23.282;2023-03-14T05:51:59;2.60;99.90
2889;DHT22;1453;42.708;23.282;2023-03-14T05:54:25;2.50;99.90
2889;DHT22;1453;42.708;23.282;2023-03-14T05:56:50;2.50;99.90
2889;DHT22;1453;42.708;23.282;2023-03-14T05:59:16;2.50;99.90
2889;DHT22;1453;42.708;23.282;2023-03-14T06:01:42;2.60;99.90
2889;DHT22;1453;42.708;23.282;2023-03-14T06:04:07;2.70;99.90
2889;DHT22;1453;42.708;23.282;2023-03-14T06:06:33;3.00;99.90
2889;DHT22;1453;42.708;23.282;2023-03-14T06:08:59;3.00;99.90
2889;DHT22;1453;42.708;23.282;2023-03-14T06:11:25;3.00;99.90
2889;DHT22;1453;42.708;23.282;2023-03-14T06:13:51;2.90;99.90
2889;DHT22;1453;42.708;23.282;2023-03-14T06:16:17;3.00;99.90
2889;DHT22;1453;42.708;23.282;2023-03-14T06:18:42;3.00;99.90
2889;DHT22;1453;42.708;23.282;2023-03-14T06:21:08;3.20;99.90
2889;DHT22;1453;42.708;23.282;2023-03-14T06:23:34;3.40;99.90
2889;DHT22;1453;42.708;23.282;2023-03-14T06:26:00;3.20;99.90
2889;DHT22;1453;42.708;23.282;2023-03-14T06:28:26;3.20;99.90
2889;DHT22;1453;42.708;23.282;2023-03-14T06:30:52;3.20;99.90
2889;DHT22;1453;42.708;23.282;2023-03-14T06:33:18;3.20;99.90
2889;DHT22;1453;42.708;23.282;2023-03-14T06:35:44;3.30;99.90
2889;DHT22;1453;42.708;23.282;2023-03-14T06:38:09;3.50;99.90
2889;DHT22;1453;42.708;23.282;2023-03-14T06:40:35;3.70;99.90
2889;DHT22;1453;42.708;23.282;2023-03-14T06:43:01;3.90;99.90
2889;DHT22;1453;42.708;23.282;2023-03-14T06:45:27;4.10;99.90
2889;DHT22;1453;42.708;23.282;2023-03-14T06:47:53;4.30;99.90
2889;DHT22;1453;42.708;23.282;2023-03-14T06:50:18;4.90;99.90
2889;DHT22;1453;42.708;23.282;2023-03-14T06:52:44;6.30;96.70
2889;DHT22;1453;42.708;23.282;2023-03-14T06:55:16;7.30;90.20
2889;DHT22;1453;42.708;23.282;2023-03-14T06:57:43;8.40;81.20
2889;DHT22;1453;42.708;23.282;2023-03-14T07:00:10;8.70;74.10
2889;DHT22;1453;42.708;23.282;2023-03-14T07:02:37;7.90;74.00
2889;DHT22;1453;42.708;23.282;2023-03-14T07:05:03;7.70;73.60
2889;DHT22;1453;42.708;23.282;2023-03-14T07:07:30;8.40;74.80
2889;DHT22;1453;42.708;23.282;2023-03-14T07:09:56;8.30;75.30
2889;DHT22;1453;42.708;23.282;2023-03-14T07:12:23;9.30;73.40
2889;DHT22;1453;42.708;23.282;2023-03-14T07:14:49;10.40;68.30
2889;DHT22;1453;42.708;23.282;2023-03-14T07:17:14;10.60;64.70
2889;DHT22;1453;42.708;23.282;2023-03-14T07:19:40;10.30;65.60
2889;DHT22;1453;42.708;23.282;2023-03-14T07:22:06;11.00;64.90
2889;DHT22;1453;42.708;23.282;2023-03-14T07:24:32;11.50;62.30
2889;DHT22;1453;42.708;23.282;2023-03-14T07:26:58;12.40;59.80
2889;DHT22;1453;42.708;23.282;2023-03-14T07:29:23;12.90;58.00
2889;DHT22;1453;42.708;23.282;2023-03-14T07:31:49;12.90;56.80
2889;DHT22;1453;42.708;23.282;2023-03-14T07:34:15;13.10;55.30
2889;DHT22;1453;42.708;23.282;2023-03-14T07:36:41;13.30;55.60
2889;DHT22;1453;42.708;23.282;2023-03-14T07:39:07;12.90;55.00
2889;DHT22;1453;42.708;23.282;2023-03-14T07:41:33;12.60;55.20
2889;DHT22;1453;42.708;23.282;2023-03-14T07:43:59;13.60;54.70
2889;DHT22;1453;42.708;23.282;2023-03-14T07:46:25;14.00;53.10
2889;DHT22;1453;42.708;23.282;2023-03-14T07:48:50;14.10;52.50
2889;DHT22;1453;42.708;23.282;2023-03-14T07:51:16;13.80;52.00
2889;DHT22;1453;42.708;23.282;2023-03-14T07:53:42;14.20;52.10
2889;DHT22;1453;42.708;23.282;2023-03-14T07:56:09;14.60;52.30
2889;DHT22;1453;42.708;23.282;2023-03-14T07:58:35;14.30;51.10
2889;DHT22;1453;42.708;23.282;2023-03-14T08:01:00;14.30;51.10
2889;DHT22;1453;42.708;23.282;2023-03-14T08:03:26;14.40;50.90
2889;DHT22;1453;42.708;23.282;2023-03-14T08:05:52;14.10;50.30
2889;DHT22;1453;42.708;23.282;2023-03-14T08:08:18;14.40;49.50
2889;DHT22;1453;42.708;23.282;2023-03-14T08:10:44;14.00;50.40
2889;DHT22;1453;42.708;23.282;2023-03-14T08:13:11;14.10;49.50
2889;DHT22;1453;42.708;23.282;2023-03-14T08:15:37;14.20;49.40
2889;DHT22;1453;42.708;23.282;2023-03-14T08:18:04;13.50;50.40
2889;DHT22;1453;42.708;23.282;2023-03-14T08:20:30;13.60;49.70
2889;DHT22;1453;42.708;23.282;2023-03-14T08:22:57;14.50;50.20
2889;DHT22;1453;42.708;23.282;2023-03-14T08:25:25;15.10;49.00
2889;DHT22;1453;42.708;23.282;2023-03-14T08:27:51;15.70;47.90
2889;DHT22;1453;42.708;23.282;2023-03-14T08:30:19;16.20;47.70
2889;DHT22;1453;42.708;23.282;2023-03-14T08:32:45;16.40;47.20
2889;DHT22;1453;42.708;23.282;2023-03-14T08:35:11;16.10;46.00
2889;DHT22;1453;42.708;23.282;2023-03-14T08:37:37;16.40;47.10
2889;DHT22;1453;42.708;23.282;2023-03-14T08:40:05;14.40;46.10
2889;DHT22;1453;42.708;23.282;2023-03-14T08:42:32;15.00;47.60
2889;DHT22;1453;42.708;23.282;2023-03-14T08:44:59;16.20;47.10
2889;DHT22;1453;42.708;23.282;2023-03-14T08:47:25;16.70;45.90
2889;DHT22;1453;42.708;23.282;2023-03-14T08:49:50;16.70;44.00
2889;DHT22;1453;42.708;23.282;2023-03-14T08:52:16;16.80;45.20
2889;DHT22;1453;42.708;23.282;2023-03-14T08:54:46;17.10;42.90
2889;DHT22;1453;42.708;23.282;2023-03-14T08:57:12;16.60;41.70
2889;DHT22;1453;42.708;23.282;2023-03-14T08:59:38;16.50;42.30
2889;DHT22;1453;42.708;23.282;2023-03-14T09:02:04;16.70;42.80
2889;DHT22;1453;42.708;23.282;2023-03-14T09:04:31;16.80;43.30
2889;DHT22;1453;42.708;23.282;2023-03-14T09:06:58;17.60;43.60
2889;DHT22;1453;42.708;23.282;2023-03-14T09:09:25;17.70;42.40
2889;DHT22;1453;42.708;23.282;2023-03-14T09:11:55;17.10;41.40
2889;DHT22;1453;42.708;23.282;2023-03-14T09:14:21;16.30;42.10
2889;DHT22;1453;42.708;23.282;2023-03-14T09:16:47;16.40;42.10
2889;DHT22;1453;42.708;23.282;2023-03-14T09:19:13;17.10;42.10
2889;DHT22;1453;42.708;23.282;2023-03-14T09:21:39;17.50;42.30
2889;DHT22;1453;42.708;23.282;2023-03-14T09:24:05;17.40;40.80
2889;DHT22;1453;42.708;23.282;2023-03-14T09:26:31;17.30;41.00
2889;DHT22;1453;42.708;23.282;2023-03-14T09:28:57;18.00;41.90
2889;DHT22;1453;42.708;23.282;2023-03-14T09:31:23;17.20;40.70
2889;DHT22;1453;42.708;23.282;2023-03-14T09:33:49;17.20;40.20
2889;DHT22;1453;42.708;23.282;2023-03-14T09:36:15;15.80;40.90
2889;DHT22;1453;42.708;23.282;2023-03-14T09:38:41;16.10;40.50
2889;DHT22;1453;42.708;23.282;2023-03-14T09:41:21;16.10;40.80
2889;DHT22;1453;42.708;23.282;2023-03-14T09:44:19;17.10;40.10
2889;DHT22;1453;42.708;23.282;2023-03-14T09:47:06;17.80;40.10
2889;DHT22;1453;42.708;23.282;2023-03-14T09:49:38;17.20;38.70
2889;DHT22;1453;42.708;23.282;2023-03-14T09:55:05;17.30;40.40
2889;DHT22;1453;42.708;23.282;2023-03-14T09:57:34;17.40;40.10
2889;DHT22;1453;42.708;23.282;2023-03-14T10:00:06;17.70;40.20
2889;DHT22;1453;42.708;23.282;2023-03-14T10:02:42;17.20;39.60
2889;DHT22;1453;42.708;23.282;2023-03-14T10:05:17;17.30;40.10
2889;DHT22;1453;42.708;23.282;2023-03-14T10:07:44;17.60;40.20
2889;DHT22;1453;42.708;23.282;2023-03-14T10:10:12;17.30;39.90
2889;DHT22;1453;42.708;23.282;2023-03-14T10:12:40;17.80;39.90
2889;DHT22;1453;42.708;23.282;2023-03-14T10:15:09;18.50;40.40
2889;DHT22;1453;42.708;23.282;2023-03-14T10:17:55;19.40;39.50
2889;DHT22;1453;42.708;23.282;2023-03-14T10:20:36;20.40;38.20
2889;DHT22;1453;42.708;23.282;2023-03-14T10:23:07;19.90;37.90
2889;DHT22;1453;42.708;23.282;2023-03-14T10:26:11;19.70;37.90
2889;DHT22;1453;42.708;23.282;2023-03-14T10:28:47;19.80;36.70
2889;DHT22;1453;42.708;23.282;2023-03-14T10:31:16;19.70;36.90
2889;DHT22;1453;42.708;23.282;2023-03-14T10:33:42;19.90;35.70
2889;DHT22;1453;42.708;23.282;2023-03-14T10:36:26;19.30;35.60
2889;DHT22;1453;42.708;23.282;2023-03-14T10:42:28;19.20;37.30
2889;DHT22;1453;42.708;23.282;2023-03-14T10:45:03;19.40;36.90
2889;DHT22;1453;42.708;23.282;2023-03-14T10:47:33;19.70;37.20
2889;DHT22;1453;42.708;23.282;2023-03-14T10:50:29;20.20;37.30
2889;DHT22;1453;42.708;23.282;2023-03-14T10:52:56;19.30;38.10
2889;DHT22;1453;42.708;23.282;2023-03-14T10:55:24;18.80;38.60
2889;DHT22;1453;42.708;23.282;2023-03-14T10:57:51;19.30;38.80
2889;DHT22;1453;42.708;23.282;2023-03-14T11:00:21;20.00;38.00
2889;DHT22;1453;42.708;23.282;2023-03-14T11:06:19;19.80;39.50
2889;DHT22;1453;42.708;23.282;2023-03-14T11:09:18;20.10;39.20
2889;DHT22;1453;42.708;23.282;2023-03-14T11:12:08;20.20;39.70
2889;DHT22;1453;42.708;23.282;2023-03-14T11:14:57;20.80;39.60
2889;DHT22;1453;42.708;23.282;2023-03-14T11:17:34;21.60;39.80
2889;DHT22;1453;42.708;23.282;2023-03-14T11:28:39;21.90;39.90
2889;DHT22;1453;42.708;23.282;2023-03-14T11:31:26;22.30;39.80
2889;DHT22;1453;42.708;23.282;2023-03-14T11:34:28;21.30;38.80
2889;DHT22;1453;42.708;23.282;2023-03-14T11:37:26;21.00;39.70
2889;DHT22;1453;42.708;23.282;2023-03-14T11:40:13;21.10;39.90
2889;DHT22;1453;42.708;23.282;2023-03-14T11:43:04;21.30;39.40
2889;DHT22;1453;42.708;23.282;2023-03-14T11:45:41;21.40;39.40
2889;DHT22;1453;42.708;23.282;2023-03-14T11:51:07;22.20;39.20
2889;DHT22;1453;42.708;23.282;2023-03-14T11:54:02;22.30;39.50
2889;DHT22;1453;42.708;23.282;2023-03-14T11:59:55;23.50;38.10
2889;DHT22;1453;42.708;23.282;2023-03-14T12:08:37;20.50;39.20
2889;DHT22;1453;42.708;23.282;2023-03-14T12:13:57;21.20;38.00
2889;DHT22;1453;42.708;23.282;2023-03-14T12:18:50;22.20;38.70
2889;DHT22;1453;42.708;23.282;2023-03-14T12:21:16;22.70;37.90
2889;DHT22;1453;42.708;23.282;2023-03-14T12:23:56;22.70;38.70
2889;DHT22;1453;42.708;23.282;2023-03-14T12:26:27;23.60;37.90
2889;DHT22;1453;42.708;23.282;2023-03-14T12:29:18;23.10;38.20
2889;DHT22;1453;42.708;23.282;2023-03-14T12:32:28;23.80;38.10
2889;DHT22;1453;42.708;23.282;2023-03-14T12:34:47;22.90;37.70
2889;DHT22;1453;42.708;23.282;2023-03-14T12:37:37;21.70;37.60
2889;DHT22;1453;42.708;23.282;2023-03-14T12:40:15;21.50;37.50
2889;DHT22;1453;42.708;23.282;2023-03-14T12:42:56;21.20;38.10
2889;DHT22;1453;42.708;23.282;2023-03-14T12:45:29;21.30;38.20
2889;DHT22;1453;42.708;23.282;2023-03-14T12:48:42;20.90;37.40
2889;DHT22;1453;42.708;23.282;2023-03-14T12:51:05;20.70;38.60
2889;DHT22;1453;42.708;23.282;2023-03-14T12:56:34;21.50;38.50
2889;DHT22;1453;42.708;23.282;2023-03-14T13:04:31;21.20;37.00
2889;DHT22;1453;42.708;23.282;2023-03-14T13:07:00;22.20;37.40
2889;DHT22;1453;42.708;23.282;2023-03-14T13:12:14;21.60;37.00
2889;DHT22;1453;42.708;23.282;2023-03-14T13:14:45;22.20;37.00
2889;DHT22;1453;42.708;23.282;2023-03-14T13:17:14;22.10;36.50
2889;DHT22;1453;42.708;23.282;2023-03-14T13:19:41;21.40;36.60
2889;DHT22;1453;42.708;23.282;2023-03-14T13:22:35;21.30;37.80
2889;DHT22;1453;42.708;23.282;2023-03-14T13:25:06;22.90;38.60
2889;DHT22;1453;42.708;23.282;2023-03-14T13:27:35;24.40;37.10
2889;DHT22;1453;42.708;23.282;2023-03-14T13:30:19;23.30;36.00
2889;DHT22;1453;42.708;23.282;2023-03-14T13:32:48;22.70;36.30
2889;DHT22;1453;42.708;23.282;2023-03-14T13:35:27;21.50;36.20
2889;DHT22;1453;42.708;23.282;2023-03-14T13:38:01;21.30;36.50
2889;DHT22;1453;42.708;23.282;2023-03-14T13:40:34;21.20;36.20
2889;DHT22;1453;42.708;23.282;2023-03-14T13:43:16;21.00;36.60
2889;DHT22;1453;42.708;23.282;2023-03-14T13:45:55;20.70;36.70
2889;DHT22;1453;42.708;23.282;2023-03-14T13:48:29;20.60;37.20
2889;DHT22;1453;42.708;23.282;2023-03-14T13:51:01;21.10;36.90
2889;DHT22;1453;42.708;23.282;2023-03-14T13:53:29;21.10;36.50
2889;DHT22;1453;42.708;23.282;2023-03-14T13:55:55;20.80;36.40
2889;DHT22;1453;42.708;23.282;2023-03-14T13:58:30;21.00;37.20
2889;DHT22;1453;42.708;23.282;2023-03-14T14:01:03;20.80;36.10
2889;DHT22;1453;42.708;23.282;2023-03-14T14:03:36;19.80;36.30
2889;DHT22;1453;42.708;23.282;2023-03-14T14:06:04;19.20;36.50
2889;DHT22;1453;42.708;23.282;2023-03-14T14:08:40;18.80;37.00
2889;DHT22;1453;42.708;23.282;2023-03-14T14:11:06;19.90;37.90
2889;DHT22;1453;42.708;23.282;2023-03-14T14:13:35;20.40;37.80
2889;DHT22;1453;42.708;23.282;2023-03-14T14:16:02;20.80;37.60
2889;DHT22;1453;42.708;23.282;2023-03-14T14:18:31;21.00;37.00
2889;DHT22;1453;42.708;23.282;2023-03-14T14:20:57;21.00;36.00
2889;DHT22;1453;42.708;23.282;2023-03-14T14:23:28;20.20;35.80
2889;DHT22;1453;42.708;23.282;2023-03-14T14:25:55;19.70;36.60
2889;DHT22;1453;42.708;23.282;2023-03-14T14:28:35;19.90;37.10
2889;DHT22;1453;42.708;23.282;2023-03-14T14:31:20;19.70;36.60
2889;DHT22;1453;42.708;23.282;2023-03-14T14:33:54;20.10;37.00
2889;DHT22;1453;42.708;23.282;2023-03-14T14:36:38;20.50;37.10
2889;DHT22;1453;42.708;23.282;2023-03-14T14:39:23;20.50;36.60
2889;DHT22;1453;42.708;23.282;2023-03-14T14:41:51;20.30;36.50
2889;DHT22;1453;42.708;23.282;2023-03-14T14:44:32;19.10;36.30
2889;DHT22;1453;42.708;23.282;2023-03-14T14:47:01;18.60;37.40
2889;DHT22;1453;42.708;23.282;2023-03-14T14:49:32;18.30;37.70
2889;DHT22;1453;42.708;23.282;2023-03-14T14:52:30;18.40;38.10
2889;DHT22;1453;42.708;23.282;2023-03-14T14:55:00;18.00;38.10
2889;DHT22;1453;42.708;23.282;2023-03-14T14:57:32;18.20;38.30
2889;DHT22;1453;42.708;23.282;2023-03-14T15:00:17;17.50;38.20
2889;DHT22;1453;42.708;23.282;2023-03-14T15:02:47;17.30;39.20
2889;DHT22;1453;42.708;23.282;2023-03-14T15:05:15;17.50;39.00
2889;DHT22;1453;42.708;23.282;2023-03-14T15:07:42;17.50;39.00
2889;DHT22;1453;42.708;23.282;2023-03-14T15:10:13;17.50;38.80
2889;DHT22;1453;42.708;23.282;2023-03-14T15:12:41;17.30;39.30
2889;DHT22;1453;42.708;23.282;2023-03-14T15:15:08;17.30;39.20
2889;DHT22;1453;42.708;23.282;2023-03-14T15:17:34;17.00;39.10
2889;DHT22;1453;42.708;23.282;2023-03-14T15:20:02;17.00;39.60
2889;DHT22;1453;42.708;23.282;2023-03-14T15:22:32;16.90;39.60
2889;DHT22;1453;42.708;23.282;2023-03-14T15:24:58;16.80;39.70
2889;DHT22;1453;42.708;23.282;2023-03-14T15:27:23;16.60;39.60
2889;DHT22;1453;42.708;23.282;2023-03-14T15:29:50;16.30;39.70
2889;DHT22;1453;42.708;23.282;2023-03-14T15:32:16;16.20;39.90
2889;DHT22;1453;42.708;23.282;2023-03-14T15:34:43;16.00;40.10
2889;DHT22;1453;42.708;23.282;2023-03-14T15:37:14;16.20;40.40
2889;DHT22;1453;42.708;23.282;2023-03-14T15:39:44;15.90;40.20
2889;DHT22;1453;42.708;23.282;2023-03-14T15:42:11;15.80;40.50
2889;DHT22;1453;42.708;23.282;2023-03-14T15:44:37;15.60;40.60
2889;DHT22;1453;42.708;23.282;2023-03-14T15:47:05;15.40;40.70
2889;DHT22;1453;42.708;23.282;2023-03-14T15:49:32;15.40;41.20
2889;DHT22;1453;42.708;23.282;2023-03-14T15:51:58;15.30;41.10
2889;DHT22;1453;42.708;23.282;2023-03-14T15:54:25;15.20;41.50
2889;DHT22;1453;42.708;23.282;2023-03-14T15:56:55;14.80;41.30
2889;DHT22;1453;42.708;23.282;2023-03-14T15:59:22;14.60;41.80
2889;DHT22;1453;42.708;23.282;2023-03-14T16:01:49;14.40;41.90
2889;DHT22;1453;42.708;23.282;2023-03-14T16:04:15;14.40;42.30
2889;DHT22;1453;42.708;23.282;2023-03-14T16:06:41;14.20;42.30
2889;DHT22;1453;42.708;23.282;2023-03-14T16:09:12;14.00;42.90
2889;DHT22;1453;42.708;23.282;2023-03-14T16:11:38;13.90;43.30
2889;DHT22;1453;42.708;23.282;2023-03-14T16:14:05;13.80;43.70
2889;DHT22;1453;42.708;23.282;2023-03-14T16:16:31;13.60;43.90
2889;DHT22;1453;42.708;23.282;2023-03-14T16:18:57;13.40;44.20
2889;DHT22;1453;42.708;23.282;2023-03-14T16:21:23;13.30;44.10
2889;DHT22;1453;42.708;23.282;2023-03-14T16:23:49;13.10;44.10
2889;DHT22;1453;42.708;23.282;2023-03-14T16:26:17;13.00;44.20
2889;DHT22;1453;42.708;23.282;2023-03-14T16:28:45;13.00;44.10
2889;DHT22;1453;42.708;23.282;2023-03-14T16:31:17;12.90;43.90
2889;DHT22;1453;42.708;23.282;2023-03-14T16:33:45;12.80;44.20
2889;DHT22;1453;42.708;23.282;2023-03-14T16:36:12;12.50;44.50
2889;DHT22;1453;42.708;23.282;2023-03-14T16:38:40;12.40;44.60
2889;DHT22;1453;42.708;23.282;2023-03-14T16:41:11;12.30;44.90
2889;DHT22;1453;42.708;23.282;2023-03-14T16:43:44;12.10;44.60
2889;DHT22;1453;42.708;23.282;2023-03-14T16:46:14;12.00;44.60
2889;DHT22;1453;42.708;23.282;2023-03-14T16:48:41;12.00;44.70
2889;DHT22;1453;42.708;23.282;2023-03-14T16:51:07;11.90;44.70
2889;DHT22;1453;42.708;23.282;2023-03-14T16:53:34;11.80;45.10
2889;DHT22;1453;42.708;23.282;2023-03-14T16:56:00;11.70;45.20
2889;DHT22;1453;42.708;23.282;2023-03-14T16:58:26;11.60;45.30
2889;DHT22;1453;42.708;23.282;2023-03-14T17:00:54;11.50;45.50
2889;DHT22;1453;42.708;23.282;2023-03-14T17:03:22;11.40;45.80
2889;DHT22;1453;42.708;23.282;2023-03-14T17:05:50;11.30;46.10
2889;DHT22;1453;42.708;23.282;2023-03-14T17:08:18;11.10;46.70
2889;DHT22;1453;42.708;23.282;2023-03-14T17:10:45;11.10;46.40
2889;DHT22;1453;42.708;23.282;2023-03-14T17:13:11;11.10;46.60
2889;DHT22;1453;42.708;23.282;2023-03-14T17:15:38;11.00;46.80